createdAt,value
2018-03-20T00:01:59.287Z,99.90
2018-03-20T00:04:25.385Z,99.90
2018-03-20T00:06:51.394Z,99.90
2018-03-20T00:09:17.349Z,99.90
2018-03-20T00:11:43.410Z,99.90
2018-03-20T00:14:09.374Z,99.90
2018-03-20T00:16:35.502Z,99.90
2018-03-20T00:19:01.464Z,99.90
2018-03-20T00:21:27.452Z,99.90
2018-03-20T00:23:54.193Z,99.90
2018-03-20T00:26:20.265Z,99.90
2018-03-20T00:28:46.304Z,99.90
2018-03-20T00:31:12.330Z,99.90
2018-03-20T00:33:38.289Z,99.90
2018-03-20T00:36:04.242Z,99.90
2018-03-20T00:38:31.046Z,99.90
2018-03-20T00:40:57.789Z,99.90
2018-03-20T00:43:24.621Z,99.90
2018-03-20T00:45:50.584Z,99.90
2018-03-20T00:48:17.324Z,99.90
2018-03-20T00:50:43.368Z,99.90
2018-03-20T00:53:10.100Z,99.90
2018-03-20T00:55:36.068Z,99.90
2018-03-20T00:58:02.803Z,99.90
2018-03-20T01:00:28.796Z,99.90
2018-03-20T01:02:54.831Z,99.90
2018-03-20T01:05:20.912Z,99.90
2018-03-20T01:07:46.984Z,99.90
2018-03-20T01:10:13.701Z,99.90
2018-03-20T01:12:39.676Z,99.90
2018-03-20T01:15:05.687Z,99.90
2018-03-20T01:17:31.695Z,99.90
2018-03-20T01:19:58.619Z,99.90
2018-03-20T01:22:24.712Z,99.90
2018-03-20T01:24:51.441Z,99.90
2018-03-20T01:27:17.459Z,99.90
2018-03-20T01:29:43.459Z,99.90
2018-03-20T01:32:10.181Z,99.90
2018-03-20T01:34:36.185Z,99.90
2018-03-20T01:37:02.147Z,99.90
2018-03-20T01:39:28.176Z,99.90
2018-03-20T01:41:54.175Z,99.90
2018-03-20T01:44:20.126Z,99.90
2018-03-20T01:46:46.162Z,99.90
2018-03-20T01:49:18.955Z,99.90
2018-03-20T01:51:45.009Z,99.90
2018-03-20T01:54:11.010Z,99.90
2018-03-20T01:56:37.691Z,99.90
2018-03-20T01:59:03.673Z,99.90
2018-03-20T02:01:29.707Z,99.90
2018-03-20T02:03:56.505Z,99.90
2018-03-20T02:06:22.470Z,99.90
2018-03-20T02:08:48.443Z,99.90
2018-03-20T02:11:21.329Z,99.90
2018-03-20T02:13:48.784Z,99.90
2018-03-20T02:16:14.732Z,99.90
2018-03-20T02:18:40.684Z,99.90
2018-03-20T02:21:06.652Z,99.90
2018-03-20T02:23:32.644Z,99.90
2018-03-20T02:25:58.708Z,99.90
2018-03-20T02:28:24.728Z,99.90
2018-03-20T02:30:51.465Z,99.90
2018-03-20T02:33:17.486Z,99.90
2018-03-20T02:35:43.453Z,99.90
2018-03-20T02:38:09.439Z,99.90
2018-03-20T02:40:35.423Z,99.90
2018-03-20T02:43:01.437Z,99.90
2018-03-20T02:45:27.461Z,99.90
2018-03-20T02:47:53.420Z,99.90
2018-03-20T02:50:19.464Z,99.90
2018-03-20T02:52:45.456Z,99.90
2018-03-20T02:55:11.489Z,99.90
2018-03-20T02:57:37.460Z,99.90
2018-03-20T03:00:03.461Z,99.90
2018-03-20T03:02:29.464Z,99.90
2018-03-20T03:04:56.304Z,99.90
2018-03-20T03:07:22.269Z,99.90
2018-03-20T03:09:48.984Z,99.90
2018-03-20T03:12:15.023Z,99.90
2018-03-20T03:14:41.004Z,99.90
2018-03-20T03:17:06.976Z,99.90
2018-03-20T03:19:32.978Z,99.90
2018-03-20T03:21:58.980Z,99.90
2018-03-20T03:24:25.018Z,99.90
2018-03-20T03:26:51.011Z,99.90
2018-03-20T03:29:16.976Z,99.90
2018-03-20T03:31:42.964Z,99.90
2018-03-20T03:34:08.936Z,99.90
2018-03-20T03:36:34.932Z,99.90
2018-03-20T03:39:00.997Z,99.90
2018-03-20T03:41:27.034Z,99.90
2018-03-20T03:43:53.020Z,99.90
2018-03-20T03:46:19.728Z,99.90
2018-03-20T03:48:45.713Z,99.90
2018-03-20T03:51:12.417Z,99.90
2018-03-20T03:53:38.412Z,99.90
2018-03-20T03:56:05.118Z,99.90
2018-03-20T03:58:31.068Z,99.90
2018-03-20T04:00:57.084Z,99.90
2018-03-20T04:03:23.057Z,99.90
2018-03-20T04:05:49.811Z,99.90
2018-03-20T04:08:16.565Z,99.90
2018-03-20T04:10:43.289Z,99.90
2018-03-20T04:13:09.275Z,99.90
2018-03-20T04:15:35.276Z,99.90
2018-03-20T04:18:01.989Z,99.90
2018-03-20T04:20:28.068Z,99.90
2018-03-20T04:22:54.082Z,99.90
2018-03-20T04:25:21.564Z,99.90
2018-03-20T04:27:47.552Z,99.90
2018-03-20T04:30:13.548Z,99.90
2018-03-20T04:32:40.250Z,99.90
2018-03-20T04:35:06.221Z,99.90
2018-03-20T04:37:32.221Z,99.90
2018-03-20T04:39:58.258Z,99.90
2018-03-20T04:42:24.282Z,99.90
2018-03-20T04:44:50.248Z,99.90
2018-03-20T04:47:16.229Z,99.90
2018-03-20T04:49:42.937Z,99.90
2018-03-20T04:52:08.920Z,99.90
2018-03-20T04:54:35.668Z,99.90
2018-03-20T04:57:01.639Z,99.90
2018-03-20T04:59:27.709Z,99.90
2018-03-20T05:01:53.662Z,99.90
2018-03-20T05:04:19.652Z,99.90
2018-03-20T05:06:45.635Z,99.90
2018-03-20T05:09:11.629Z,99.90
2018-03-20T05:11:37.588Z,99.90
2018-03-20T05:14:03.577Z,99.90
2018-03-20T05:16:30.347Z,99.90
2018-03-20T05:19:01.336Z,99.90
2018-03-20T05:21:29.359Z,99.90
2018-03-20T05:23:59.231Z,99.90
2018-03-20T05:26:25.244Z,99.90
2018-03-20T05:28:51.228Z,99.90
2018-03-20T05:31:17.244Z,99.90
2018-03-20T05:33:43.216Z,99.90
2018-03-20T05:36:09.217Z,99.90
2018-03-20T05:38:35.180Z,99.90
2018-03-20T05:41:01.184Z,99.90
2018-03-20T05:43:27.194Z,99.90
2018-03-20T05:45:53.188Z,99.90
2018-03-20T05:51:16.608Z,99.90
2018-03-20T05:53:42.571Z,99.90
2018-03-20T05:56:08.582Z,99.90
2018-03-20T05:58:34.548Z,99.90
2018-03-20T06:01:00.598Z,99.90
2018-03-20T06:03:26.727Z,99.90
2018-03-20T06:05:52.684Z,99.90
2018-03-20T06:08:18.676Z,99.90
2018-03-20T06:10:45.377Z,99.90
2018-03-20T06:13:11.404Z,99.90
2018-03-20T06:15:37.392Z,99.90
2018-03-20T06:18:03.347Z,99.90
2018-03-20T06:20:30.128Z,99.90
2018-03-20T06:22:56.174Z,99.90
2018-03-20T06:25:22.172Z,99.90
2018-03-20T06:27:48.912Z,99.90
2018-03-20T06:30:14.936Z,99.90
2018-03-20T06:32:40.892Z,99.90
2018-03-20T06:35:07.618Z,99.90
2018-03-20T06:37:33.593Z,99.90
2018-03-20T06:40:00.431Z,99.90
2018-03-20T06:42:26.472Z,99.90
2018-03-20T06:44:53.196Z,99.90
2018-03-20T06:47:19.192Z,99.90
2018-03-20T06:49:45.188Z,99.90
2018-03-20T06:52:11.156Z,99.90
2018-03-20T06:54:37.149Z,99.90
2018-03-20T06:57:03.109Z,99.90
2018-03-20T06:59:29.932Z,99.90
2018-03-20T07:01:55.996Z,99.90
2018-03-20T07:04:22.736Z,99.90
2018-03-20T07:06:48.713Z,99.90
2018-03-20T07:09:14.704Z,99.90
2018-03-20T07:11:40.692Z,99.90
2018-03-20T07:14:06.632Z,99.90
2018-03-20T07:16:32.618Z,99.90
2018-03-20T07:18:58.614Z,99.90
2018-03-20T07:21:24.664Z,99.90
2018-03-20T07:23:50.657Z,99.90
2018-03-20T07:26:16.624Z,99.90
2018-03-20T07:28:42.680Z,99.90
2018-03-20T07:31:09.386Z,99.90
2018-03-20T07:33:35.417Z,99.90
2018-03-20T07:36:01.381Z,99.90
2018-03-20T07:38:27.526Z,99.90
2018-03-20T07:40:53.488Z,99.90
2018-03-20T07:43:19.456Z,99.90
2018-03-20T07:45:46.192Z,99.90
2018-03-20T07:48:12.145Z,99.90
2018-03-20T07:50:38.960Z,99.90
2018-03-20T07:53:04.917Z,99.90
2018-03-20T07:55:30.889Z,99.90
2018-03-20T07:57:57.645Z,99.90
2018-03-20T08:00:23.632Z,99.90
2018-03-20T08:02:49.613Z,99.90
2018-03-20T08:05:15.620Z,99.90
2018-03-20T08:07:41.564Z,99.90
2018-03-20T08:10:08.293Z,99.90
2018-03-20T08:12:34.249Z,99.90
2018-03-20T08:15:01.064Z,99.90
2018-03-20T08:17:27.190Z,99.90
2018-03-20T08:19:53.172Z,99.90
2018-03-20T08:22:19.169Z,99.90
2018-03-20T08:24:45.153Z,99.90
2018-03-20T08:27:11.841Z,99.90
2018-03-20T08:29:37.879Z,99.90
2018-03-20T08:32:03.876Z,99.90
2018-03-20T08:34:30.584Z,92.90
2018-03-20T08:36:56.595Z,92.90
2018-03-20T08:39:22.588Z,91.50
2018-03-20T08:41:48.535Z,90.90
2018-03-20T08:44:15.265Z,91.50
2018-03-20T08:46:41.234Z,91.20
2018-03-20T08:49:07.976Z,83.10
2018-03-20T08:51:34.105Z,83.10
2018-03-20T08:54:00.216Z,81.80
2018-03-20T08:56:26.260Z,79.70
2018-03-20T08:58:52.250Z,80.70
2018-03-20T09:01:18.248Z,77.00
2018-03-20T09:03:44.273Z,78.60
2018-03-20T09:06:10.277Z,77.10
2018-03-20T09:08:36.298Z,76.50
2018-03-20T09:11:02.429Z,76.70
2018-03-20T09:13:29.344Z,71.60
2018-03-20T09:15:55.399Z,71.00
2018-03-20T09:18:22.136Z,70.70
2018-03-20T09:20:48.142Z,70.60
2018-03-20T09:23:14.096Z,71.50
2018-03-20T09:25:40.087Z,71.10
2018-03-20T09:28:06.776Z,68.70
2018-03-20T09:30:32.760Z,68.60
2018-03-20T09:32:58.828Z,68.20
2018-03-20T09:35:24.900Z,66.60
2018-03-20T09:37:50.887Z,66.40
2018-03-20T09:40:16.853Z,65.00
2018-03-20T09:42:42.843Z,64.40
2018-03-20T09:45:09.529Z,62.50
2018-03-20T09:47:35.529Z,62.30
2018-03-20T09:50:01.476Z,64.40
2018-03-20T09:52:28.260Z,63.40
2018-03-20T09:54:55.048Z,61.10
2018-03-20T09:57:20.996Z,60.90
2018-03-20T09:59:46.980Z,61.20
2018-03-20T10:02:12.993Z,61.90
2018-03-20T10:04:39.777Z,58.80
2018-03-20T10:07:05.769Z,58.80
2018-03-20T10:09:31.720Z,57.10
2018-03-20T10:11:58.500Z,55.60
2018-03-20T10:14:24.482Z,55.60
2018-03-20T10:16:50.433Z,56.90
2018-03-20T10:19:16.417Z,55.40
2018-03-20T10:21:42.404Z,52.80
2018-03-20T10:24:09.124Z,53.30
2018-03-20T10:26:35.081Z,53.30
2018-03-20T10:29:01.227Z,53.10
2018-03-20T10:31:27.250Z,51.60
2018-03-20T10:33:53.206Z,52.90
2018-03-20T10:36:19.945Z,52.80
2018-03-20T10:38:45.916Z,52.80
2018-03-20T10:41:11.892Z,49.00
2018-03-20T10:43:37.838Z,45.50
2018-03-20T10:46:03.836Z,44.70
2018-03-20T10:48:29.894Z,45.40
2018-03-20T10:50:55.936Z,45.90
2018-03-20T10:53:21.931Z,46.70
2018-03-20T10:55:48.680Z,44.80
2018-03-20T10:58:15.380Z,45.90
2018-03-20T11:00:47.309Z,45.80
2018-03-20T11:03:14.064Z,47.00
2018-03-20T11:05:40.759Z,48.10
2018-03-20T11:08:06.722Z,48.10
2018-03-20T11:10:32.716Z,49.20
2018-03-20T11:12:58.696Z,50.30
2018-03-20T11:15:24.701Z,49.30
2018-03-20T11:17:50.652Z,50.30
2018-03-20T11:20:16.652Z,50.30
2018-03-20T11:22:42.645Z,49.50
2018-03-20T11:25:09.342Z,48.90
2018-03-20T11:27:35.296Z,48.90
2018-03-20T11:30:01.349Z,49.50
2018-03-20T11:32:27.358Z,47.50
2018-03-20T11:34:53.392Z,47.70
2018-03-20T11:37:19.368Z,47.10
2018-03-20T11:39:45.350Z,45.80
2018-03-20T11:42:11.351Z,46.20
2018-03-20T11:44:37.344Z,46.70
2018-03-20T11:47:03.293Z,47.10
2018-03-20T11:49:29.351Z,47.30
2018-03-20T11:51:55.340Z,48.50
2018-03-20T11:54:21.332Z,46.30
2018-03-20T11:56:47.351Z,46.70
2018-03-20T11:59:13.310Z,46.70
2018-03-20T12:01:39.272Z,47.30
2018-03-20T12:04:05.264Z,48.60
2018-03-20T12:06:31.306Z,48.90
2018-03-20T12:09:09.828Z,49.40
2018-03-20T12:11:35.785Z,49.90
2018-03-20T12:14:01.816Z,50.50
2018-03-20T12:16:27.998Z,50.40
2018-03-20T12:18:53.991Z,51.30
2018-03-20T12:21:19.977Z,51.50
2018-03-20T12:23:45.968Z,52.00
2018-03-20T12:26:11.956Z,52.50
2018-03-20T12:28:37.930Z,53.40
2018-03-20T12:31:03.924Z,53.60
2018-03-20T12:33:30.001Z,54.40
2018-03-20T12:35:56.030Z,56.00
2018-03-20T12:38:22.032Z,56.60
2018-03-20T12:40:47.985Z,55.60
2018-03-20T12:43:14.001Z,57.60
2018-03-20T12:45:39.969Z,58.80
2018-03-20T12:48:05.944Z,60.40
2018-03-20T12:50:32.668Z,64.50
2018-03-20T12:52:58.658Z,64.50
2018-03-20T12:55:24.703Z,65.80
2018-03-20T12:57:50.680Z,66.60
2018-03-20T13:00:16.663Z,70.40
2018-03-20T13:02:42.612Z,71.30
2018-03-20T13:05:08.611Z,73.70
2018-03-20T13:07:35.296Z,75.30
2018-03-20T13:10:01.333Z,75.20
2018-03-20T13:12:27.380Z,76.80
2018-03-20T13:14:53.400Z,77.40
2018-03-20T13:17:19.364Z,75.90
2018-03-20T13:19:45.321Z,80.50
2018-03-20T13:22:11.304Z,82.90
2018-03-20T13:24:37.272Z,83.10
2018-03-20T13:27:03.249Z,83.30
2018-03-20T13:29:29.300Z,87.00
2018-03-20T13:31:55.309Z,87.30
2018-03-20T13:34:21.308Z,89.90
2018-03-20T13:36:47.264Z,91.20
2018-03-20T13:39:13.264Z,94.00
2018-03-20T13:41:39.228Z,96.10
2018-03-20T13:44:05.240Z,98.40
2018-03-20T13:46:31.416Z,98.30
2018-03-20T13:48:57.413Z,94.90
2018-03-20T13:51:23.429Z,95.60
2018-03-20T13:53:50.116Z,99.90
2018-03-20T13:56:16.084Z,99.90
2018-03-20T13:58:42.249Z,99.90
2018-03-20T14:01:08.184Z,99.90
2018-03-20T14:03:34.880Z,99.90
2018-03-20T14:06:00.901Z,99.90
2018-03-20T14:08:26.948Z,99.90
2018-03-20T14:10:53.740Z,99.90
2018-03-20T14:13:19.700Z,99.90
2018-03-20T14:15:46.433Z,99.90
2018-03-20T14:18:12.392Z,99.90
2018-03-20T14:20:39.186Z,99.90
2018-03-20T14:23:05.089Z,99.90
2018-03-20T14:25:31.781Z,99.90
2018-03-20T14:27:57.815Z,99.90
2018-03-20T14:30:23.804Z,99.90
2018-03-20T14:32:50.544Z,99.90
2018-03-20T14:35:16.501Z,99.90
2018-03-20T14:37:43.189Z,99.90
2018-03-20T14:40:09.164Z,99.90
2018-03-20T14:42:35.117Z,99.90
2018-03-20T14:45:01.856Z,99.90
2018-03-20T14:47:27.886Z,99.90
2018-03-20T14:49:54.676Z,99.90
2018-03-20T14:52:20.696Z,99.90
2018-03-20T14:54:47.380Z,99.90
2018-03-20T14:57:13.368Z,99.90
2018-03-20T14:59:39.400Z,99.90
2018-03-20T15:02:05.352Z,99.90
2018-03-20T15:04:32.058Z,99.90
2018-03-20T15:06:58.068Z,99.90
2018-03-20T15:09:24.032Z,99.90
2018-03-20T15:11:50.012Z,99.90
2018-03-20T15:14:15.967Z,99.90
2018-03-20T15:16:41.929Z,99.90
2018-03-20T15:19:07.925Z,99.90
2018-03-20T15:21:34.652Z,99.90
2018-03-20T15:24:00.653Z,99.90
2018-03-20T15:26:26.652Z,99.90
2018-03-20T15:28:53.356Z,99.90
2018-03-20T15:31:19.350Z,99.90
2018-03-20T15:33:46.040Z,99.90
2018-03-20T15:36:12.006Z,99.90
2018-03-20T15:38:37.989Z,99.90
2018-03-20T15:41:03.995Z,99.90
2018-03-20T15:43:30.689Z,99.90
2018-03-20T15:45:56.683Z,99.90
2018-03-20T15:48:23.381Z,99.90
2018-03-20T15:50:49.364Z,99.90
2018-03-20T15:53:15.325Z,99.90
2018-03-20T15:55:42.049Z,99.90
2018-03-20T15:58:08.009Z,99.90
2018-03-20T16:00:34.744Z,99.90
2018-03-20T16:03:00.806Z,99.90
2018-03-20T16:05:27.612Z,99.90
2018-03-20T16:07:53.615Z,99.90
2018-03-20T16:10:19.612Z,99.90
2018-03-20T16:12:45.560Z,99.90
2018-03-20T16:15:12.257Z,99.90
2018-03-20T16:17:38.301Z,99.90
2018-03-20T16:20:04.291Z,99.90
2018-03-20T16:22:31.049Z,99.90
2018-03-20T16:24:57.849Z,99.90
2018-03-20T16:27:23.828Z,99.90
2018-03-20T16:29:50.552Z,99.90
2018-03-20T16:32:16.496Z,99.90
2018-03-20T16:34:42.557Z,99.90
2018-03-20T16:37:09.192Z,99.90
2018-03-20T16:39:35.173Z,99.90
2018-03-20T16:42:01.118Z,99.90
2018-03-20T16:44:27.137Z,99.90
2018-03-20T16:46:53.203Z,99.90
2018-03-20T16:49:19.164Z,99.90
2018-03-20T16:51:45.138Z,99.90
2018-03-20T16:54:11.136Z,99.90
2018-03-20T16:56:37.087Z,99.90
2018-03-20T16:59:03.062Z,99.90
2018-03-20T17:01:29.057Z,99.90
2018-03-20T17:03:55.788Z,99.90
2018-03-20T17:06:21.768Z,99.90
2018-03-20T17:08:47.714Z,99.90
2018-03-20T17:11:13.661Z,99.90
2018-03-20T17:13:39.673Z,99.90
2018-03-20T17:16:06.356Z,99.90
2018-03-20T17:18:32.307Z,99.90
2018-03-20T17:20:58.352Z,99.90
2018-03-20T17:23:24.305Z,99.90
2018-03-20T17:25:50.296Z,99.90
2018-03-20T17:28:16.308Z,99.90
2018-03-20T17:30:42.316Z,99.90
2018-03-20T17:33:08.317Z,99.90
2018-03-20T17:35:36.136Z,99.90
2018-03-20T17:38:02.112Z,99.90
2018-03-20T17:40:28.087Z,99.90
2018-03-20T17:42:54.073Z,99.90
2018-03-20T17:45:20.020Z,99.90
2018-03-20T17:47:46.049Z,99.90
2018-03-20T17:50:11.998Z,99.90
2018-03-20T17:52:37.961Z,99.90
2018-03-20T17:55:04.012Z,99.90
2018-03-20T17:57:30.067Z,99.90
2018-03-20T17:59:56.840Z,99.90
2018-03-20T18:02:22.818Z,99.90
2018-03-20T18:04:48.801Z,99.90
2018-03-20T18:07:15.528Z,99.90
2018-03-20T18:09:41.480Z,99.90
2018-03-20T18:12:08.226Z,99.90
2018-03-20T18:14:34.172Z,99.90
2018-03-20T18:17:00.160Z,99.90
2018-03-20T18:19:26.197Z,99.90
2018-03-20T18:21:52.177Z,99.90
2018-03-20T18:24:18.867Z,99.90
2018-03-20T18:26:44.848Z,99.90
2018-03-20T18:29:10.802Z,99.90
2018-03-20T18:31:36.781Z,99.90
2018-03-20T18:34:02.756Z,99.90
2018-03-20T18:36:28.776Z,99.90
2018-03-20T18:38:54.796Z,99.90
2018-03-20T18:41:20.770Z,99.90
2018-03-20T18:43:46.748Z,99.90
2018-03-20T18:46:12.705Z,99.90
2018-03-20T18:48:38.698Z,99.90
2018-03-20T18:51:05.441Z,99.90
2018-03-20T18:53:31.477Z,99.90
2018-03-20T18:55:58.204Z,99.90
2018-03-20T18:58:24.185Z,99.90
2018-03-20T19:00:50.188Z,99.90
2018-03-20T19:03:16.200Z,99.90
2018-03-20T19:05:42.164Z,99.90
2018-03-20T19:08:08.144Z,99.90
2018-03-20T19:10:34.124Z,99.90
2018-03-20T19:13:00.170Z,99.90
2018-03-20T19:15:26.221Z,99.90
2018-03-20T19:17:52.903Z,99.90
2018-03-20T19:20:18.950Z,99.90
2018-03-20T19:22:45.600Z,99.90
2018-03-20T19:25:11.593Z,99.90
2018-03-20T19:27:37.592Z,99.90
2018-03-20T19:30:03.591Z,99.90
2018-03-20T19:32:29.596Z,99.90
2018-03-20T19:34:55.620Z,99.90
2018-03-20T19:37:21.604Z,99.90
2018-03-20T19:39:47.604Z,99.90
2018-03-20T19:42:13.552Z,99.90
2018-03-20T19:44:40.249Z,99.90
2018-03-20T19:47:06.233Z,99.90
2018-03-20T19:49:32.228Z,99.90
2018-03-20T19:51:58.357Z,99.90
2018-03-20T19:54:24.301Z,99.90
2018-03-20T19:56:50.296Z,99.90
2018-03-20T19:59:17.013Z,99.90
2018-03-20T20:01:42.963Z,99.90
2018-03-20T20:04:08.999Z,99.90
2018-03-20T20:06:34.948Z,99.90
2018-03-20T20:09:01.742Z,99.90
2018-03-20T20:11:27.795Z,99.90
2018-03-20T20:13:53.745Z,99.90
2018-03-20T20:16:20.465Z,99.90
2018-03-20T20:18:46.412Z,99.90
2018-03-20T20:21:12.405Z,99.90
2018-03-20T20:23:39.094Z,99.90
2018-03-20T20:26:05.081Z,99.90
2018-03-20T20:28:31.158Z,99.90
2018-03-20T20:30:57.236Z,99.90
2018-03-20T20:33:23.188Z,99.90
2018-03-20T20:35:49.140Z,99.90
2018-03-20T20:38:15.887Z,99.90
2018-03-20T20:40:41.844Z,99.90
2018-03-20T20:43:08.528Z,99.90
2018-03-20T20:45:34.513Z,99.90
2018-03-20T20:48:00.544Z,99.90
2018-03-20T20:50:26.630Z,99.90
2018-03-20T20:52:52.580Z,99.90
2018-03-20T20:55:18.573Z,99.90
2018-03-20T20:57:45.260Z,99.90
2018-03-20T21:00:11.204Z,99.90
2018-03-20T21:02:37.217Z,99.90
2018-03-20T21:05:03.168Z,99.90
2018-03-20T21:07:29.236Z,99.90
2018-03-20T21:09:55.257Z,99.90
2018-03-20T21:12:22.017Z,99.90
2018-03-20T21:14:48.024Z,99.90
2018-03-20T21:17:14.012Z,99.90
2018-03-20T21:19:39.949Z,99.90
2018-03-20T21:22:05.924Z,99.90
2018-03-20T21:24:31.988Z,99.90
2018-03-20T21:26:58.060Z,99.90
2018-03-20T21:29:24.799Z,99.90
2018-03-20T21:31:50.802Z,99.90
2018-03-20T21:34:16.792Z,99.90
2018-03-20T21:36:42.747Z,99.90
2018-03-20T21:39:08.756Z,99.90
2018-03-20T21:41:34.708Z,99.90
2018-03-20T21:44:01.493Z,99.90
2018-03-20T21:46:27.538Z,99.90
2018-03-20T21:48:53.493Z,99.90
2018-03-20T21:51:19.473Z,99.90
2018-03-20T21:53:46.169Z,99.90
2018-03-20T21:56:12.154Z,99.90
2018-03-20T21:58:38.877Z,99.90
2018-03-20T22:01:04.860Z,99.90
2018-03-20T22:03:30.920Z,99.90
2018-03-20T22:05:56.940Z,99.90
2018-03-20T22:08:22.944Z,99.90
2018-03-20T22:10:48.932Z,99.90
2018-03-20T22:13:14.901Z,99.90
2018-03-20T22:15:40.884Z,99.90
2018-03-20T22:18:06.836Z,99.90
2018-03-20T22:20:32.821Z,99.90
2018-03-20T22:22:58.813Z,99.90
2018-03-20T22:25:24.789Z,99.90
2018-03-20T22:27:50.769Z,99.90
2018-03-20T22:30:16.770Z,99.90
2018-03-20T22:32:43.515Z,99.90
2018-03-20T22:35:09.500Z,99.90
2018-03-20T22:37:35.472Z,99.90
2018-03-20T22:40:01.457Z,99.90
2018-03-20T22:42:27.497Z,99.90
2018-03-20T22:44:53.452Z,99.90
2018-03-20T22:47:19.405Z,99.90
2018-03-20T22:49:45.472Z,99.90
2018-03-20T22:52:11.424Z,99.90
2018-03-20T22:54:38.132Z,99.90
2018-03-20T22:57:04.153Z,99.90
2018-03-20T22:59:30.150Z,99.90
2018-03-20T23:01:56.916Z,99.90
2018-03-20T23:04:22.896Z,99.90
2018-03-20T23:06:48.880Z,99.90
2018-03-20T23:09:15.576Z,99.90
2018-03-20T23:11:41.582Z,99.90
2018-03-20T23:14:07.585Z,99.90
2018-03-20T23:16:34.289Z,99.90
2018-03-20T23:19:00.315Z,99.90
2018-03-20T23:21:26.415Z,99.90
2018-03-20T23:23:53.215Z,99.90
2018-03-20T23:26:19.200Z,99.90
2018-03-20T23:28:45.153Z,99.90
2018-03-20T23:31:11.902Z,99.90
2018-03-20T23:33:38.645Z,99.90
2018-03-20T23:36:04.588Z,99.90
2018-03-20T23:38:30.647Z,99.90
2018-03-20T23:40:56.677Z,99.90
2018-03-20T23:43:23.371Z,99.90
2018-03-20T23:45:49.357Z,99.90
2018-03-20T23:48:16.100Z,99.90
2018-03-20T23:50:42.056Z,99.90
2018-03-20T23:53:08.757Z,99.90
2018-03-20T23:55:34.733Z,99.90
2018-03-20T23:58:01.480Z,99.90
